createdAt,value
2018-08-10T00:02:02.269Z,97.00
2018-08-10T00:04:30.789Z,96.70
2018-08-10T00:06:59.416Z,96.70
2018-08-10T00:09:27.997Z,96.70
2018-08-10T00:11:56.515Z,96.60
2018-08-10T00:14:25.123Z,96.50
2018-08-10T00:16:53.720Z,96.20
2018-08-10T00:19:22.239Z,96.20
2018-08-10T00:21:50.849Z,96.30
2018-08-10T00:24:19.358Z,96.30
2018-08-10T00:26:47.933Z,96.40
2018-08-10T00:29:16.433Z,96.40
2018-08-10T00:31:44.935Z,96.50
2018-08-10T00:34:13.507Z,96.60
2018-08-10T00:36:42.007Z,96.50
2018-08-10T00:39:12.719Z,96.50
2018-08-10T00:41:41.211Z,96.50
2018-08-10T00:44:09.778Z,96.60
2018-08-10T00:46:38.453Z,96.40
2018-08-10T00:49:07.027Z,96.40
2018-08-10T00:51:35.630Z,96.40
2018-08-10T00:54:04.076Z,96.30
2018-08-10T00:56:32.530Z,95.90
2018-08-10T00:59:01.069Z,95.80
2018-08-10T01:01:29.611Z,95.70
2018-08-10T01:03:58.098Z,95.70
2018-08-10T01:06:26.704Z,95.90
2018-08-10T01:08:55.265Z,95.70
2018-08-10T01:11:24.189Z,95.60
2018-08-10T01:13:52.683Z,95.50
2018-08-10T01:16:21.160Z,95.20
2018-08-10T01:18:49.621Z,95.20
2018-08-10T01:21:18.156Z,95.20
2018-08-10T01:23:46.615Z,95.10
2018-08-10T01:26:15.815Z,95.00
2018-08-10T01:28:44.419Z,94.90
2018-08-10T01:31:12.780Z,94.90
2018-08-10T01:33:41.227Z,94.80
2018-08-10T01:36:09.834Z,94.80
2018-08-10T01:38:38.451Z,94.60
2018-08-10T01:41:07.009Z,94.70
2018-08-10T01:43:35.972Z,94.60
2018-08-10T01:46:04.459Z,94.50
2018-08-10T01:48:33.597Z,94.20
2018-08-10T01:51:02.036Z,94.20
2018-08-10T01:53:30.504Z,94.10
2018-08-10T01:55:59.031Z,94.20
2018-08-10T01:58:27.620Z,94.20
2018-08-10T02:00:56.456Z,94.40
2018-08-10T02:03:24.870Z,94.10
2018-08-10T02:05:53.369Z,94.10
2018-08-10T02:08:21.856Z,94.10
2018-08-10T02:10:50.365Z,94.00
2018-08-10T02:13:18.849Z,94.00
2018-08-10T02:15:47.373Z,94.10
2018-08-10T02:18:15.830Z,94.20
2018-08-10T02:20:44.281Z,94.20
2018-08-10T02:23:12.748Z,94.20
2018-08-10T02:25:41.315Z,94.30
2018-08-10T02:28:09.802Z,94.30
2018-08-10T02:30:38.332Z,94.40
2018-08-10T02:33:07.703Z,94.40
2018-08-10T02:35:36.267Z,94.40
2018-08-10T02:38:04.724Z,94.00
2018-08-10T02:40:33.684Z,94.00
2018-08-10T02:43:02.222Z,93.90
2018-08-10T02:45:30.750Z,93.90
2018-08-10T02:47:59.290Z,93.90
2018-08-10T02:50:27.755Z,94.00
2018-08-10T02:52:56.368Z,94.10
2018-08-10T02:55:24.782Z,94.00
2018-08-10T02:57:53.250Z,94.10
2018-08-10T03:00:21.661Z,94.10
2018-08-10T03:02:50.119Z,94.20
2018-08-10T03:05:18.626Z,94.50
2018-08-10T03:07:47.053Z,95.00
2018-08-10T03:10:15.617Z,94.90
2018-08-10T03:12:44.041Z,94.90
2018-08-10T03:15:14.568Z,95.00
2018-08-10T03:17:43.339Z,95.00
2018-08-10T03:20:11.837Z,95.10
2018-08-10T03:22:40.628Z,95.00
2018-08-10T03:25:10.250Z,94.10
2018-08-10T03:27:39.021Z,94.10
2018-08-10T03:30:09.192Z,94.30
2018-08-10T03:32:37.700Z,94.40
2018-08-10T03:35:06.126Z,94.60
2018-08-10T03:37:34.681Z,94.80
2018-08-10T03:40:03.306Z,94.90
2018-08-10T03:42:31.704Z,95.20
2018-08-10T03:45:00.149Z,95.30
2018-08-10T03:47:28.584Z,95.50
2018-08-10T03:49:58.618Z,95.70
2018-08-10T03:52:27.077Z,95.90
2018-08-10T03:54:55.593Z,95.80
2018-08-10T03:57:24.081Z,95.90
2018-08-10T03:59:52.512Z,95.90
2018-08-10T04:02:21.037Z,95.90
2018-08-10T04:04:49.592Z,96.00
2018-08-10T04:07:18.097Z,96.00
2018-08-10T04:09:46.639Z,96.00
2018-08-10T04:12:15.174Z,96.00
2018-08-10T04:14:43.711Z,96.40
2018-08-10T04:17:16.623Z,96.40
2018-08-10T04:19:45.159Z,96.40
2018-08-10T04:22:13.620Z,96.50
2018-08-10T04:24:42.138Z,96.60
2018-08-10T04:27:10.598Z,96.70
2018-08-10T04:29:39.150Z,96.70
2018-08-10T04:32:07.584Z,96.90
2018-08-10T04:34:36.139Z,97.00
2018-08-10T04:37:04.577Z,97.10
2018-08-10T04:39:33.865Z,97.20
2018-08-10T04:42:02.356Z,97.30
2018-08-10T04:44:30.830Z,97.60
2018-08-10T04:46:59.256Z,97.40
2018-08-10T04:49:27.885Z,97.50
2018-08-10T04:51:56.313Z,97.60
2018-08-10T04:54:24.895Z,97.80
2018-08-10T04:56:53.391Z,98.00
2018-08-10T04:59:21.813Z,98.20
2018-08-10T05:01:50.253Z,98.40
2018-08-10T05:04:18.786Z,98.40
2018-08-10T05:06:47.292Z,98.40
2018-08-10T05:09:16.410Z,98.50
2018-08-10T05:11:44.967Z,98.60
2018-08-10T05:14:13.457Z,98.70
2018-08-10T05:16:42.302Z,98.70
2018-08-10T05:19:11.373Z,98.70
2018-08-10T05:21:39.859Z,98.90
2018-08-10T05:24:08.644Z,98.90
2018-08-10T05:26:37.319Z,99.00
2018-08-10T05:29:06.181Z,99.10
2018-08-10T05:31:34.706Z,99.20
2018-08-10T05:34:03.975Z,99.50
2018-08-10T05:36:32.425Z,99.80
2018-08-10T05:39:00.935Z,99.90
2018-08-10T05:41:29.459Z,99.90
2018-08-10T05:43:58.037Z,99.90
2018-08-10T05:46:26.475Z,99.90
2018-08-10T05:48:55.038Z,99.90
2018-08-10T05:51:23.532Z,99.90
2018-08-10T05:53:52.054Z,99.90
2018-08-10T05:56:20.538Z,99.90
2018-08-10T05:58:49.022Z,99.90
2018-08-10T06:01:17.581Z,99.80
2018-08-10T06:03:46.643Z,99.50
2018-08-10T06:06:19.758Z,99.40
2018-08-10T06:08:48.289Z,99.20
2018-08-10T06:11:16.848Z,98.80
2018-08-10T06:13:45.370Z,98.50
2018-08-10T06:16:14.544Z,98.40
2018-08-10T06:18:43.063Z,98.40
2018-08-10T06:21:11.599Z,98.50
2018-08-10T06:23:40.182Z,98.70
2018-08-10T06:26:08.671Z,99.90
2018-08-10T06:28:37.272Z,99.90
2018-08-10T06:31:05.779Z,99.90
2018-08-10T06:33:34.241Z,99.90
2018-08-10T06:36:03.553Z,99.90
2018-08-10T06:38:32.045Z,99.10
2018-08-10T06:41:00.542Z,99.40
2018-08-10T06:43:29.066Z,99.90
2018-08-10T06:45:57.629Z,99.90
2018-08-10T06:48:26.128Z,99.90
2018-08-10T06:50:54.658Z,99.90
2018-08-10T06:53:23.194Z,99.90
2018-08-10T06:55:51.818Z,99.90
2018-08-10T06:58:20.201Z,99.90
2018-08-10T07:00:48.844Z,99.90
2018-08-10T07:03:17.374Z,99.90
2018-08-10T07:05:45.968Z,99.90
2018-08-10T07:08:14.586Z,99.90
2018-08-10T07:10:43.076Z,99.90
2018-08-10T07:13:12.125Z,99.90
2018-08-10T07:15:40.577Z,99.90
2018-08-10T07:18:09.305Z,99.90
2018-08-10T07:20:37.843Z,99.90
2018-08-10T07:23:06.687Z,99.70
2018-08-10T07:25:35.217Z,99.20
2018-08-10T07:28:03.803Z,99.90
2018-08-10T07:30:32.355Z,99.90
2018-08-10T07:33:01.089Z,99.90
2018-08-10T07:35:29.597Z,99.90
2018-08-10T07:37:58.130Z,96.80
2018-08-10T07:40:26.654Z,96.40
2018-08-10T07:42:55.230Z,96.10
2018-08-10T07:45:23.740Z,94.40
2018-08-10T07:47:52.294Z,92.80
2018-08-10T07:50:20.847Z,92.40
2018-08-10T07:52:51.046Z,91.70
2018-08-10T07:55:20.229Z,92.10
2018-08-10T07:57:48.863Z,92.40
2018-08-10T08:00:17.413Z,92.60
2018-08-10T08:02:45.971Z,92.80
2018-08-10T08:05:14.493Z,93.20
2018-08-10T08:07:43.658Z,93.80
2018-08-10T08:10:12.924Z,94.10
2018-08-10T08:12:41.414Z,94.20
2018-08-10T08:15:09.893Z,94.70
2018-08-10T08:17:38.373Z,96.70
2018-08-10T08:20:07.461Z,99.70
2018-08-10T08:22:35.919Z,98.20
2018-08-10T08:25:04.950Z,98.20
2018-08-10T08:27:33.694Z,96.50
2018-08-10T08:30:03.319Z,96.30
2018-08-10T08:32:31.748Z,96.50
2018-08-10T08:35:00.354Z,96.50
2018-08-10T08:37:28.799Z,96.10
2018-08-10T08:40:09.069Z,96.30
2018-08-10T08:42:37.591Z,96.50
2018-08-10T08:46:10.090Z,95.20
2018-08-10T08:48:54.830Z,95.40
2018-08-10T08:51:24.968Z,95.40
2018-08-10T08:54:04.845Z,97.10
2018-08-10T08:56:40.336Z,96.60
2018-08-10T08:59:08.942Z,96.50
2018-08-10T09:01:37.449Z,95.30
2018-08-10T09:05:05.184Z,92.50
2018-08-10T09:07:33.958Z,92.00
2018-08-10T09:10:03.241Z,92.00
2018-08-10T09:12:31.756Z,94.60
2018-08-10T09:15:02.748Z,97.70
2018-08-10T09:17:31.390Z,93.30
2018-08-10T09:19:59.889Z,96.50
2018-08-10T09:22:28.653Z,99.40
2018-08-10T09:24:57.326Z,94.40
2018-08-10T09:27:25.994Z,91.50
2018-08-10T09:29:54.556Z,91.90
2018-08-10T09:32:23.734Z,95.30
2018-08-10T09:34:52.292Z,91.90
2018-08-10T09:37:20.835Z,89.70
2018-08-10T09:39:49.400Z,91.30
2018-08-10T09:42:17.996Z,94.20
2018-08-10T09:44:46.397Z,93.80
2018-08-10T09:47:14.898Z,88.30
2018-08-10T09:49:46.753Z,85.90
2018-08-10T09:52:15.338Z,85.60
2018-08-10T09:55:21.641Z,92.70
2018-08-10T09:57:51.766Z,95.80
2018-08-10T10:00:25.732Z,96.20
2018-08-10T10:02:59.711Z,88.10
2018-08-10T10:05:28.174Z,87.30
2018-08-10T10:07:57.504Z,93.20
2018-08-10T10:10:25.986Z,92.50
2018-08-10T10:12:54.801Z,88.20
2018-08-10T10:15:23.396Z,86.20
2018-08-10T10:17:51.930Z,78.50
2018-08-10T10:20:20.532Z,82.60
2018-08-10T10:22:49.445Z,83.80
2018-08-10T10:25:18.259Z,70.40
2018-08-10T10:27:47.055Z,68.40
2018-08-10T10:30:15.511Z,67.10
2018-08-10T10:32:44.280Z,67.20
2018-08-10T10:35:12.795Z,71.60
2018-08-10T10:37:41.363Z,85.40
2018-08-10T10:40:10.765Z,83.50
2018-08-10T10:42:39.528Z,71.50
2018-08-10T10:45:11.936Z,73.60
2018-08-10T10:47:41.006Z,74.90
2018-08-10T10:50:10.282Z,77.10
2018-08-10T10:52:39.017Z,74.00
2018-08-10T10:55:08.105Z,62.30
2018-08-10T10:57:36.624Z,64.80
2018-08-10T11:00:07.529Z,61.80
2018-08-10T11:02:36.006Z,66.30
2018-08-10T11:05:05.671Z,65.60
2018-08-10T11:07:34.164Z,72.80
2018-08-10T11:10:02.674Z,73.80
2018-08-10T11:12:31.276Z,67.40
2018-08-10T11:14:59.799Z,67.40
2018-08-10T11:17:28.322Z,63.20
2018-08-10T11:19:56.802Z,61.70
2018-08-10T11:22:25.333Z,58.90
2018-08-10T11:24:53.850Z,57.20
2018-08-10T11:27:23.051Z,58.20
2018-08-10T11:29:52.926Z,56.50
2018-08-10T11:32:21.597Z,52.50
2018-08-10T11:34:50.114Z,49.60
2018-08-10T11:37:18.684Z,44.40
2018-08-10T11:39:47.284Z,42.70
2018-08-10T11:42:15.754Z,42.80
2018-08-10T11:44:44.306Z,43.60
2018-08-10T11:47:13.387Z,53.00
2018-08-10T11:49:42.552Z,52.80
2018-08-10T11:52:11.061Z,43.50
2018-08-10T11:54:39.915Z,50.00
2018-08-10T11:57:08.497Z,49.20
2018-08-10T11:59:36.998Z,46.20
2018-08-10T12:02:05.580Z,46.00
2018-08-10T12:04:34.174Z,46.10
2018-08-10T12:07:03.545Z,42.20
2018-08-10T12:09:32.014Z,42.70
2018-08-10T12:12:02.979Z,43.10
2018-08-10T12:14:34.336Z,39.40
2018-08-10T12:17:03.117Z,42.70
2018-08-10T12:19:31.904Z,40.00
2018-08-10T12:22:00.393Z,42.50
2018-08-10T12:24:28.923Z,42.30
2018-08-10T12:26:57.468Z,43.40
2018-08-10T12:29:25.992Z,40.20
2018-08-10T12:31:54.622Z,38.20
2018-08-10T12:34:24.112Z,37.20
2018-08-10T12:36:52.756Z,37.60
2018-08-10T12:39:21.324Z,41.70
2018-08-10T12:41:50.234Z,41.80
2018-08-10T12:44:19.098Z,37.60
2018-08-10T12:46:47.720Z,36.40
2018-08-10T12:49:16.333Z,37.80
2018-08-10T12:51:44.875Z,37.80
2018-08-10T12:54:13.405Z,38.40
2018-08-10T12:56:42.515Z,38.60
2018-08-10T12:59:11.114Z,42.80
2018-08-10T13:01:39.611Z,45.10
2018-08-10T13:04:08.118Z,47.00
2018-08-10T13:06:36.616Z,41.90
2018-08-10T13:09:08.638Z,42.10
2018-08-10T13:11:37.406Z,39.40
2018-08-10T13:14:05.921Z,44.00
2018-08-10T13:16:34.444Z,43.80
2018-08-10T13:19:02.995Z,43.70
2018-08-10T13:21:31.604Z,42.00
2018-08-10T13:24:00.203Z,40.90
2018-08-10T13:26:28.712Z,37.80
2018-08-10T13:28:58.524Z,39.60
2018-08-10T13:31:27.017Z,37.20
2018-08-10T13:33:56.415Z,37.80
2018-08-10T13:36:25.371Z,37.00
2018-08-10T13:38:53.904Z,37.20
2018-08-10T13:41:22.375Z,38.20
2018-08-10T13:43:51.058Z,39.00
2018-08-10T13:46:19.642Z,40.00
2018-08-10T13:48:48.147Z,44.10
2018-08-10T13:51:16.657Z,41.20
2018-08-10T13:53:45.336Z,40.50
2018-08-10T13:56:13.874Z,40.40
2018-08-10T13:58:42.492Z,44.20
2018-08-10T14:01:15.261Z,42.50
2018-08-10T14:03:44.057Z,41.40
2018-08-10T14:06:13.255Z,43.10
2018-08-10T14:08:41.813Z,43.60
2018-08-10T14:11:10.310Z,43.30
2018-08-10T14:13:39.823Z,42.90
2018-08-10T14:16:08.257Z,42.10
2018-08-10T14:18:36.773Z,41.70
2018-08-10T14:21:05.449Z,41.50
2018-08-10T14:23:33.999Z,42.50
2018-08-10T14:26:02.485Z,42.90
2018-08-10T14:28:31.666Z,42.00
2018-08-10T14:31:02.729Z,41.70
2018-08-10T14:33:31.377Z,39.70
2018-08-10T14:35:59.906Z,39.20
2018-08-10T14:38:28.610Z,39.80
2018-08-10T14:40:57.150Z,40.20
2018-08-10T14:43:25.645Z,40.70
2018-08-10T14:45:54.107Z,41.10
2018-08-10T14:48:22.608Z,41.50
2018-08-10T14:50:51.084Z,42.00
2018-08-10T14:53:19.698Z,42.50
2018-08-10T14:55:48.240Z,42.50
2018-08-10T14:58:16.850Z,42.80
2018-08-10T15:00:45.766Z,42.90
2018-08-10T15:03:14.862Z,43.10
2018-08-10T15:05:43.554Z,43.20
2018-08-10T15:08:12.154Z,42.80
2018-08-10T15:10:40.712Z,43.60
2018-08-10T15:13:09.482Z,44.60
2018-08-10T15:15:37.890Z,46.70
2018-08-10T15:18:06.656Z,48.30
2018-08-10T15:20:35.132Z,48.80
2018-08-10T15:23:03.666Z,48.80
2018-08-10T15:25:32.216Z,48.90
2018-08-10T15:28:00.661Z,49.70
2018-08-10T15:30:29.321Z,50.20
2018-08-10T15:32:57.834Z,51.40
2018-08-10T15:35:26.453Z,52.60
2018-08-10T15:37:55.104Z,53.40
2018-08-10T15:40:23.655Z,53.80
2018-08-10T15:42:52.176Z,54.20
2018-08-10T15:45:20.984Z,54.70
2018-08-10T15:47:50.224Z,55.00
2018-08-10T15:50:19.932Z,55.80
2018-08-10T15:52:48.560Z,56.30
2018-08-10T15:55:17.215Z,56.80
2018-08-10T15:57:45.793Z,56.90
2018-08-10T16:00:20.864Z,57.30
2018-08-10T16:02:49.660Z,57.70
2018-08-10T16:05:18.323Z,57.80
2018-08-10T16:07:46.930Z,57.80
2018-08-10T16:10:15.565Z,57.50
2018-08-10T16:12:44.070Z,57.50
2018-08-10T16:15:14.559Z,57.70
2018-08-10T16:17:43.141Z,57.50
2018-08-10T16:20:15.454Z,57.10
2018-08-10T16:22:44.190Z,57.10
2018-08-10T16:25:12.861Z,57.00
2018-08-10T16:27:42.349Z,57.30
2018-08-10T16:30:12.443Z,57.50
2018-08-10T16:32:42.255Z,57.70
2018-08-10T16:35:12.075Z,57.90
2018-08-10T16:37:42.484Z,57.70
2018-08-10T16:40:12.152Z,57.50
2018-08-10T16:42:41.300Z,56.70
2018-08-10T16:45:10.705Z,56.40
2018-08-10T16:47:39.654Z,56.80
2018-08-10T16:50:11.392Z,57.70
2018-08-10T16:52:41.443Z,58.10
2018-08-10T16:55:13.657Z,57.90
2018-08-10T16:57:42.983Z,57.70
2018-08-10T17:00:13.672Z,58.20
2018-08-10T17:02:42.238Z,58.50
2018-08-10T17:05:11.118Z,58.50
2018-08-10T17:07:40.561Z,58.30
2018-08-10T17:10:09.393Z,58.50
2018-08-10T17:12:39.316Z,57.50
2018-08-10T17:15:11.246Z,57.80
2018-08-10T17:17:40.474Z,58.10
2018-08-10T17:20:09.746Z,58.70
2018-08-10T17:22:38.276Z,59.60
2018-08-10T17:25:08.156Z,60.40
2018-08-10T17:27:36.763Z,61.50
2018-08-10T17:30:07.395Z,62.40
2018-08-10T17:32:36.490Z,63.60
2018-08-10T17:35:05.770Z,64.00
2018-08-10T17:37:34.238Z,64.60
2018-08-10T17:40:03.118Z,65.50
2018-08-10T17:42:31.689Z,66.70
2018-08-10T17:45:00.263Z,66.90
2018-08-10T17:47:28.986Z,67.80
2018-08-10T17:49:57.952Z,68.70
2018-08-10T17:52:26.613Z,68.90
2018-08-10T17:54:57.551Z,68.90
2018-08-10T17:57:26.649Z,69.20
2018-08-10T17:59:55.782Z,69.80
2018-08-10T18:02:24.403Z,70.50
2018-08-10T18:04:53.350Z,71.40
2018-08-10T18:07:21.976Z,72.10
2018-08-10T18:09:50.708Z,72.20
2018-08-10T18:12:19.385Z,72.30
2018-08-10T18:14:48.589Z,72.70
2018-08-10T18:17:17.373Z,73.00
2018-08-10T18:19:46.170Z,73.00
2018-08-10T18:22:14.956Z,72.20
2018-08-10T18:24:43.548Z,71.80
2018-08-10T18:27:12.986Z,70.10
2018-08-10T18:29:42.190Z,70.40
2018-08-10T18:32:11.313Z,71.20
2018-08-10T18:34:40.027Z,71.70
2018-08-10T18:37:08.647Z,72.10
2018-08-10T18:39:37.428Z,73.00
2018-08-10T18:42:06.784Z,73.40
2018-08-10T18:44:36.743Z,74.30
2018-08-10T18:47:05.785Z,74.60
2018-08-10T18:49:34.773Z,75.10
2018-08-10T18:52:03.414Z,75.50
2018-08-10T18:54:32.210Z,76.60
2018-08-10T18:57:00.990Z,76.80
2018-08-10T18:59:29.843Z,76.90
2018-08-10T19:01:58.492Z,77.50
2018-08-10T19:04:27.761Z,77.80
2018-08-10T19:06:56.728Z,78.40
2018-08-10T19:09:26.280Z,78.90
2018-08-10T19:11:56.198Z,79.20
2018-08-10T19:14:24.976Z,79.90
2018-08-10T19:16:54.305Z,80.40
2018-08-10T19:19:24.307Z,80.90
2018-08-10T19:21:53.106Z,81.10
2018-08-10T19:24:21.930Z,81.50
2018-08-10T19:26:51.005Z,82.10
2018-08-10T19:29:19.548Z,82.20
2018-08-10T19:31:48.135Z,83.40
2018-08-10T19:34:17.281Z,83.20
2018-08-10T19:36:46.112Z,83.90
2018-08-10T19:39:14.653Z,84.10
2018-08-10T19:41:43.777Z,84.40
2018-08-10T19:44:12.947Z,85.00
2018-08-10T19:46:42.643Z,85.00
2018-08-10T19:49:11.239Z,85.30
2018-08-10T19:51:39.730Z,85.20
2018-08-10T19:54:08.244Z,85.10
2018-08-10T19:56:37.040Z,85.40
2018-08-10T19:59:05.754Z,85.80
2018-08-10T20:01:34.338Z,86.30
2018-08-10T20:04:02.915Z,86.60
2018-08-10T20:06:31.617Z,86.90
2018-08-10T20:09:00.179Z,87.50
2018-08-10T20:11:28.745Z,88.00
2018-08-10T20:13:57.406Z,88.30
2018-08-10T20:16:26.181Z,88.80
2018-08-10T20:18:55.001Z,89.00
2018-08-10T20:21:23.926Z,89.20
2018-08-10T20:23:52.492Z,89.60
2018-08-10T20:26:21.733Z,90.00
2018-08-10T20:28:50.450Z,90.10
2018-08-10T20:31:20.620Z,90.20
2018-08-10T20:33:49.430Z,90.40
2018-08-10T20:36:18.651Z,90.50
2018-08-10T20:38:47.724Z,90.60
2018-08-10T20:41:16.340Z,90.80
2018-08-10T20:43:45.900Z,90.90
2018-08-10T20:46:14.507Z,91.10
2018-08-10T20:48:45.483Z,91.30
2018-08-10T20:51:16.756Z,91.50
2018-08-10T20:53:47.248Z,91.80
2018-08-10T20:56:21.192Z,91.40
2018-08-10T20:58:51.653Z,91.30
2018-08-10T21:01:22.728Z,91.80
2018-08-10T21:03:51.924Z,92.00
2018-08-10T21:06:22.235Z,92.30
2018-08-10T21:08:50.818Z,92.50
2018-08-10T21:11:20.518Z,92.70
2018-08-10T21:13:49.646Z,92.90
2018-08-10T21:16:18.283Z,92.90
2018-08-10T21:18:46.941Z,93.00
2018-08-10T21:21:15.602Z,93.00
2018-08-10T21:23:44.124Z,92.80
2018-08-10T21:26:13.051Z,92.10
2018-08-10T21:28:41.685Z,91.80
2018-08-10T21:31:10.210Z,91.90
2018-08-10T21:33:38.908Z,92.10
2018-08-10T21:36:07.411Z,92.10
2018-08-10T21:38:36.615Z,92.10
2018-08-10T21:41:05.206Z,92.20
2018-08-10T21:43:33.715Z,92.30
2018-08-10T21:46:02.213Z,92.50
2018-08-10T21:48:30.876Z,92.80
2018-08-10T21:50:59.324Z,92.90
2018-08-10T21:53:27.904Z,93.00
2018-08-10T21:55:56.597Z,92.90
2018-08-10T21:58:25.480Z,93.20
2018-08-10T22:01:01.268Z,93.10
2018-08-10T22:03:30.252Z,93.20
2018-08-10T22:05:58.906Z,93.40
2018-08-10T22:08:28.145Z,93.50
2018-08-10T22:10:56.767Z,93.50
2018-08-10T22:13:30.586Z,93.70
2018-08-10T22:16:04.583Z,93.80
2018-08-10T22:18:39.213Z,94.00
2018-08-10T22:21:08.415Z,94.10
2018-08-10T22:23:36.909Z,94.30
2018-08-10T22:26:05.561Z,94.50
2018-08-10T22:28:34.198Z,94.50
2018-08-10T22:31:03.625Z,94.60
2018-08-10T22:33:32.189Z,94.60
2018-08-10T22:36:02.257Z,94.70
2018-08-10T22:38:31.564Z,94.90
2018-08-10T22:41:01.066Z,94.90
2018-08-10T22:43:29.713Z,95.00
2018-08-10T22:45:58.223Z,95.20
2018-08-10T22:48:26.741Z,95.10
2018-08-10T22:50:55.342Z,95.20
2018-08-10T22:53:23.949Z,95.20
2018-08-10T22:55:52.492Z,95.30
2018-08-10T22:58:21.421Z,95.40
2018-08-10T23:00:50.476Z,95.40
2018-08-10T23:03:19.084Z,95.50
2018-08-10T23:05:47.977Z,95.60
2018-08-10T23:08:17.033Z,95.70
2018-08-10T23:10:45.561Z,95.90
2018-08-10T23:13:14.095Z,95.90
2018-08-10T23:15:42.796Z,96.30
2018-08-10T23:18:11.235Z,96.20
2018-08-10T23:20:39.868Z,96.20
2018-08-10T23:23:08.391Z,96.30
2018-08-10T23:25:37.399Z,96.40
2018-08-10T23:28:06.117Z,96.30
2018-08-10T23:30:34.713Z,96.30
2018-08-10T23:33:03.275Z,96.30
2018-08-10T23:35:31.929Z,96.60
2018-08-10T23:38:00.531Z,96.70
2018-08-10T23:40:29.073Z,96.70
2018-08-10T23:42:58.267Z,96.70
2018-08-10T23:45:27.246Z,96.70
2018-08-10T23:47:55.900Z,96.90
2018-08-10T23:50:24.549Z,97.00
2018-08-10T23:52:53.085Z,97.00
2018-08-10T23:55:22.134Z,96.90
2018-08-10T23:57:50.801Z,96.80
